sensor_id;sensor_type;location;lat;lon;timestamp;pressure;altitude;pressure_sealevel;temperature;humidity
23363;BME280;11853;48.080;11.960;2023-07-08T00:01:18;95088.06;;;20.21;57.23
23363;BME280;11853;48.080;11.960;2023-07-08T00:03:44;95096.34;;;20.20;57.54
23363;BME280;11853;48.080;11.960;2023-07-08T00:06:17;95096.75;;;20.17;57.66
23363;BME280;11853;48.080;11.960;2023-07-08T00:08:43;95082.06;;;20.13;57.85
23363;BME280;11853;48.080;11.960;2023-07-08T00:11:13;95086.41;;;20.14;57.80
23363;BME280;11853;48.080;11.960;2023-07-08T00:13:39;95091.38;;;20.17;58.15
23363;BME280;11853;48.080;11.960;2023-07-08T00:16:10;95078.13;;;20.15;57.69
23363;BME280;11853;48.080;11.960;2023-07-08T00:18:36;95085.16;;;20.10;57.53
23363;BME280;11853;48.080;11.960;2023-07-08T00:21:02;95077.69;;;20.05;57.68
23363;BME280;11853;48.080;11.960;2023-07-08T00:23:28;95081.22;;;20.06;57.66
23363;BME280;11853;48.080;11.960;2023-07-08T00:25:54;95081.03;;;20.07;57.84
23363;BME280;11853;48.080;11.960;2023-07-08T00:28:20;95080.59;;;20.03;58.00
23363;BME280;11853;48.080;11.960;2023-07-08T00:30:49;95070.44;;;19.99;58.57
23363;BME280;11853;48.080;11.960;2023-07-08T00:33:15;95076.44;;;19.94;59.19
23363;BME280;11853;48.080;11.960;2023-07-08T00:35:43;95074.78;;;19.93;59.39
23363;BME280;11853;48.080;11.960;2023-07-08T00:38:29;95070.44;;;19.92;59.22
23363;BME280;11853;48.080;11.960;2023-07-08T00:41:24;95068.75;;;19.91;59.59
23363;BME280;11853;48.080;11.960;2023-07-08T00:43:53;95071.03;;;19.94;58.80
23363;BME280;11853;48.080;11.960;2023-07-08T00:49:03;95063.59;;;19.90;59.38
23363;BME280;11853;48.080;11.960;2023-07-08T00:51:34;95067.13;;;19.90;59.23
23363;BME280;11853;48.080;11.960;2023-07-08T00:54:03;95077.25;;;19.88;59.05
23363;BME280;11853;48.080;11.960;2023-07-08T00:56:31;95068.56;;;19.86;59.30
23363;BME280;11853;48.080;11.960;2023-07-08T00:59:06;95076.00;;;19.84;59.49
23363;BME280;11853;48.080;11.960;2023-07-08T01:01:35;95070.41;;;19.86;59.68
23363;BME280;11853;48.080;11.960;2023-07-08T01:04:13;95073.31;;;19.84;59.67
23363;BME280;11853;48.080;11.960;2023-07-08T01:06:44;95083.88;;;19.86;59.53
23363;BME280;11853;48.080;11.960;2023-07-08T01:09:13;95078.91;;;19.83;59.12
23363;BME280;11853;48.080;11.960;2023-07-08T01:11:40;95081.00;;;19.87;59.04
23363;BME280;11853;48.080;11.960;2023-07-08T01:14:09;95072.28;;;19.85;59.02
23363;BME280;11853;48.080;11.960;2023-07-08T01:16:36;95068.53;;;19.73;59.66
23363;BME280;11853;48.080;11.960;2023-07-08T01:19:04;95070.19;;;19.74;59.37
23363;BME280;11853;48.080;11.960;2023-07-08T01:21:36;95071.41;;;19.71;59.53
23363;BME280;11853;48.080;11.960;2023-07-08T01:24:07;95066.44;;;19.68;59.71
23363;BME280;11853;48.080;11.960;2023-07-08T01:26:40;95061.03;;;19.62;60.06
23363;BME280;11853;48.080;11.960;2023-07-08T01:29:07;95064.31;;;19.57;60.52
23363;BME280;11853;48.080;11.960;2023-07-08T01:31:34;95058.09;;;19.56;60.87
23363;BME280;11853;48.080;11.960;2023-07-08T01:34:00;95059.34;;;19.54;61.09
23363;BME280;11853;48.080;11.960;2023-07-08T01:36:29;95065.16;;;19.57;61.30
23363;BME280;11853;48.080;11.960;2023-07-08T01:38:56;95062.88;;;19.54;61.15
23363;BME280;11853;48.080;11.960;2023-07-08T01:41:22;95062.25;;;19.52;61.46
23363;BME280;11853;48.080;11.960;2023-07-08T01:43:47;95054.16;;;19.52;61.27
23363;BME280;11853;48.080;11.960;2023-07-08T01:46:24;95067.00;;;19.50;61.45
23363;BME280;11853;48.080;11.960;2023-07-08T01:48:54;95066.34;;;19.48;61.78
23363;BME280;11853;48.080;11.960;2023-07-08T01:51:22;95063.88;;;19.47;61.81
23363;BME280;11853;48.080;11.960;2023-07-08T01:53:49;95070.72;;;19.49;62.14
23363;BME280;11853;48.080;11.960;2023-07-08T01:56:15;95069.69;;;19.57;63.09
23363;BME280;11853;48.080;11.960;2023-07-08T01:58:41;95070.31;;;19.59;63.78
23363;BME280;11853;48.080;11.960;2023-07-08T02:01:07;95075.75;;;19.66;62.29
23363;BME280;11853;48.080;11.960;2023-07-08T02:03:33;95063.16;;;19.66;61.57
23363;BME280;11853;48.080;11.960;2023-07-08T02:05:59;95057.28;;;19.63;62.24
23363;BME280;11853;48.080;11.960;2023-07-08T02:08:25;95064.53;;;19.62;62.75
23363;BME280;11853;48.080;11.960;2023-07-08T02:10:54;95069.09;;;19.62;62.28
23363;BME280;11853;48.080;11.960;2023-07-08T02:13:21;95066.81;;;19.58;62.92
23363;BME280;11853;48.080;11.960;2023-07-08T02:15:48;95065.16;;;19.57;64.06
23363;BME280;11853;48.080;11.960;2023-07-08T02:18:14;95062.47;;;19.57;64.39
23363;BME280;11853;48.080;11.960;2023-07-08T02:20:39;95059.97;;;19.56;65.14
23363;BME280;11853;48.080;11.960;2023-07-08T02:23:05;95060.19;;;19.54;65.47
23363;BME280;11853;48.080;11.960;2023-07-08T02:25:31;95049.19;;;19.49;65.93
23363;BME280;11853;48.080;11.960;2023-07-08T02:27:57;95043.00;;;19.49;65.17
23363;BME280;11853;48.080;11.960;2023-07-08T02:30:26;95045.69;;;19.49;65.32
23363;BME280;11853;48.080;11.960;2023-07-08T02:32:52;95044.00;;;19.48;64.89
23363;BME280;11853;48.080;11.960;2023-07-08T02:35:29;95044.41;;;19.45;64.87
23363;BME280;11853;48.080;11.960;2023-07-08T02:37:56;95043.59;;;19.44;65.59
23363;BME280;11853;48.080;11.960;2023-07-08T02:40:22;95040.06;;;19.44;66.00
23363;BME280;11853;48.080;11.960;2023-07-08T02:42:48;95045.63;;;19.42;66.65
23363;BME280;11853;48.080;11.960;2023-07-08T02:45:15;95047.72;;;19.40;65.87
23363;BME280;11853;48.080;11.960;2023-07-08T02:47:41;95050.19;;;19.35;66.42
23363;BME280;11853;48.080;11.960;2023-07-08T02:50:08;95047.69;;;19.33;66.49
23363;BME280;11853;48.080;11.960;2023-07-08T02:52:35;95046.03;;;19.32;66.46
23363;BME280;11853;48.080;11.960;2023-07-08T02:55:01;95045.22;;;19.32;66.57
23363;BME280;11853;48.080;11.960;2023-07-08T02:57:27;95038.56;;;19.28;67.08
23363;BME280;11853;48.080;11.960;2023-07-08T02:59:52;95041.25;;;19.28;67.56
23363;BME280;11853;48.080;11.960;2023-07-08T03:02:18;95038.56;;;19.28;68.20
23363;BME280;11853;48.080;11.960;2023-07-08T03:04:44;95037.94;;;19.26;68.47
23363;BME280;11853;48.080;11.960;2023-07-08T03:07:10;95051.78;;;19.23;68.28
23363;BME280;11853;48.080;11.960;2023-07-08T03:09:40;95042.66;;;19.17;68.94
23363;BME280;11853;48.080;11.960;2023-07-08T03:12:07;95046.59;;;19.15;68.64
23363;BME280;11853;48.080;11.960;2023-07-08T03:14:33;95051.75;;;19.09;68.80
23363;BME280;11853;48.080;11.960;2023-07-08T03:16:59;95050.06;;;19.08;67.72
23363;BME280;11853;48.080;11.960;2023-07-08T03:19:24;95050.47;;;19.05;69.13
23363;BME280;11853;48.080;11.960;2023-07-08T03:21:51;95054.19;;;19.04;69.91
23363;BME280;11853;48.080;11.960;2023-07-08T03:24:17;95053.78;;;19.01;71.46
23363;BME280;11853;48.080;11.960;2023-07-08T03:26:44;95051.91;;;19.01;71.25
23363;BME280;11853;48.080;11.960;2023-07-08T03:29:14;95049.81;;;18.97;70.78
23363;BME280;11853;48.080;11.960;2023-07-08T03:31:41;95056.63;;;18.93;72.00
23363;BME280;11853;48.080;11.960;2023-07-08T03:34:10;95059.91;;;18.88;71.95
23363;BME280;11853;48.080;11.960;2023-07-08T03:36:42;95065.28;;;18.88;72.23
23363;BME280;11853;48.080;11.960;2023-07-08T03:39:09;95060.53;;;18.90;72.61
23363;BME280;11853;48.080;11.960;2023-07-08T03:41:35;95049.16;;;18.88;74.01
23363;BME280;11853;48.080;11.960;2023-07-08T03:44:00;95047.91;;;18.84;73.84
23363;BME280;11853;48.080;11.960;2023-07-08T03:46:26;95046.84;;;18.85;72.75
23363;BME280;11853;48.080;11.960;2023-07-08T03:48:52;95040.47;;;18.86;71.73
23363;BME280;11853;48.080;11.960;2023-07-08T03:51:22;95041.28;;;18.86;73.08
23363;BME280;11853;48.080;11.960;2023-07-08T03:53:49;95038.78;;;18.85;74.90
23363;BME280;11853;48.080;11.960;2023-07-08T03:56:16;95042.75;;;18.89;74.07
23363;BME280;11853;48.080;11.960;2023-07-08T03:58:42;95040.91;;;18.89;74.37
23363;BME280;11853;48.080;11.960;2023-07-08T04:01:16;95043.19;;;18.93;74.81
23363;BME280;11853;48.080;11.960;2023-07-08T04:03:42;95046.91;;;18.92;74.67
23363;BME280;11853;48.080;11.960;2023-07-08T04:06:09;95047.34;;;18.95;74.09
23363;BME280;11853;48.080;11.960;2023-07-08T04:08:34;95045.06;;;18.99;71.68
23363;BME280;11853;48.080;11.960;2023-07-08T04:11:00;95051.28;;;18.99;70.64
23363;BME280;11853;48.080;11.960;2023-07-08T04:13:26;95056.06;;;19.04;69.57
23363;BME280;11853;48.080;11.960;2023-07-08T04:15:55;95050.25;;;19.00;69.66
23363;BME280;11853;48.080;11.960;2023-07-08T04:18:21;95050.03;;;19.02;68.49
23363;BME280;11853;48.080;11.960;2023-07-08T04:20:47;95035.97;;;19.00;68.70
23363;BME280;11853;48.080;11.960;2023-07-08T04:23:24;95031.44;;;19.00;68.95
23363;BME280;11853;48.080;11.960;2023-07-08T04:25:52;95025.00;;;19.01;69.37
23363;BME280;11853;48.080;11.960;2023-07-08T04:28:20;95025.00;;;19.01;68.93
23363;BME280;11853;48.080;11.960;2023-07-08T04:30:47;95035.19;;;19.06;69.38
23363;BME280;11853;48.080;11.960;2023-07-08T04:33:14;95027.72;;;19.08;69.50
23363;BME280;11853;48.080;11.960;2023-07-08T04:35:41;95030.41;;;19.08;70.93
23363;BME280;11853;48.080;11.960;2023-07-08T04:38:20;95031.06;;;19.10;71.82
23363;BME280;11853;48.080;11.960;2023-07-08T04:40:50;95038.47;;;19.08;70.99
23363;BME280;11853;48.080;11.960;2023-07-08T04:43:17;95048.41;;;19.07;70.17
23363;BME280;11853;48.080;11.960;2023-07-08T04:45:45;95050.28;;;19.07;69.77
23363;BME280;11853;48.080;11.960;2023-07-08T04:48:14;95056.72;;;19.12;68.98
23363;BME280;11853;48.080;11.960;2023-07-08T04:50:45;95054.25;;;19.18;67.53
23363;BME280;11853;48.080;11.960;2023-07-08T04:53:11;95063.34;;;19.17;67.93
23363;BME280;11853;48.080;11.960;2023-07-08T04:55:44;95058.59;;;19.19;68.18
23363;BME280;11853;48.080;11.960;2023-07-08T04:58:12;95065.88;;;19.25;67.97
23363;BME280;11853;48.080;11.960;2023-07-08T05:00:37;95056.38;;;19.29;67.87
23363;BME280;11853;48.080;11.960;2023-07-08T05:03:03;95060.31;;;19.33;68.10
23363;BME280;11853;48.080;11.960;2023-07-08T05:05:29;95064.03;;;19.32;67.94
23363;BME280;11853;48.080;11.960;2023-07-08T05:07:54;95063.63;;;19.35;68.25
23363;BME280;11853;48.080;11.960;2023-07-08T05:10:20;95069.63;;;19.37;68.20
23363;BME280;11853;48.080;11.960;2023-07-08T05:12:46;95076.69;;;19.38;67.90
23363;BME280;11853;48.080;11.960;2023-07-08T05:15:12;95082.06;;;19.38;67.90
23363;BME280;11853;48.080;11.960;2023-07-08T05:17:39;95083.94;;;19.44;67.84
23363;BME280;11853;48.080;11.960;2023-07-08T05:20:07;95085.84;;;19.50;67.50
23363;BME280;11853;48.080;11.960;2023-07-08T05:22:33;95088.13;;;19.53;68.43
23363;BME280;11853;48.080;11.960;2023-07-08T05:24:59;95092.69;;;19.59;68.61
23363;BME280;11853;48.080;11.960;2023-07-08T05:27:25;95089.84;;;19.68;68.74
23363;BME280;11853;48.080;11.960;2023-07-08T05:29:51;95092.75;;;19.73;71.37
23363;BME280;11853;48.080;11.960;2023-07-08T05:32:17;95097.97;;;19.81;72.68
23363;BME280;11853;48.080;11.960;2023-07-08T05:34:43;95095.91;;;19.83;72.31
23363;BME280;11853;48.080;11.960;2023-07-08T05:37:10;95093.00;;;19.91;72.14
23363;BME280;11853;48.080;11.960;2023-07-08T05:39:37;95088.47;;;19.98;73.22
23363;BME280;11853;48.080;11.960;2023-07-08T05:42:02;95097.19;;;20.07;73.31
23363;BME280;11853;48.080;11.960;2023-07-08T05:44:28;95105.25;;;20.07;72.52
23363;BME280;11853;48.080;11.960;2023-07-08T05:46:54;95104.25;;;20.15;72.58
23363;BME280;11853;48.080;11.960;2023-07-08T05:49:19;95106.13;;;20.21;73.82
23363;BME280;11853;48.080;11.960;2023-07-08T05:51:45;95110.47;;;20.22;73.95
23363;BME280;11853;48.080;11.960;2023-07-08T05:54:12;95110.03;;;20.25;73.40
23363;BME280;11853;48.080;11.960;2023-07-08T05:56:37;95110.06;;;20.32;73.05
23363;BME280;11853;48.080;11.960;2023-07-08T05:59:03;95111.72;;;20.39;72.74
23363;BME280;11853;48.080;11.960;2023-07-08T06:01:30;95123.34;;;20.46;71.44
23363;BME280;11853;48.080;11.960;2023-07-08T06:03:56;95116.91;;;20.54;70.28
23363;BME280;11853;48.080;11.960;2023-07-08T06:06:26;95116.91;;;20.67;69.79
23363;BME280;11853;48.080;11.960;2023-07-08T06:08:53;95122.50;;;20.79;69.73
23363;BME280;11853;48.080;11.960;2023-07-08T06:11:19;95114.81;;;20.89;68.95
23363;BME280;11853;48.080;11.960;2023-07-08T06:13:44;95112.72;;;21.05;68.67
23363;BME280;11853;48.080;11.960;2023-07-08T06:16:10;95106.03;;;21.21;68.02
23363;BME280;11853;48.080;11.960;2023-07-08T06:18:36;95110.97;;;21.37;67.56
23363;BME280;11853;48.080;11.960;2023-07-08T06:21:03;95113.84;;;21.49;63.34
23363;BME280;11853;48.080;11.960;2023-07-08T06:23:28;95106.59;;;21.49;63.62
23363;BME280;11853;48.080;11.960;2023-07-08T06:25:54;95108.63;;;21.54;64.29
23363;BME280;11853;48.080;11.960;2023-07-08T06:28:20;95110.03;;;21.63;64.61
23363;BME280;11853;48.080;11.960;2023-07-08T06:30:46;95105.44;;;21.70;64.03
23363;BME280;11853;48.080;11.960;2023-07-08T06:33:12;95103.94;;;21.81;64.82
23363;BME280;11853;48.080;11.960;2023-07-08T06:35:38;95102.03;;;21.88;63.06
23363;BME280;11853;48.080;11.960;2023-07-08T06:38:05;95107.22;;;21.90;63.12
23363;BME280;11853;48.080;11.960;2023-07-08T06:40:32;95111.31;;;21.99;64.01
23363;BME280;11853;48.080;11.960;2023-07-08T06:42:58;95110.19;;;22.13;64.43
23363;BME280;11853;48.080;11.960;2023-07-08T06:45:23;95114.09;;;22.24;63.79
23363;BME280;11853;48.080;11.960;2023-07-08T06:47:49;95110.47;;;22.37;63.87
23363;BME280;11853;48.080;11.960;2023-07-08T06:50:15;95105.16;;;22.48;63.78
23363;BME280;11853;48.080;11.960;2023-07-08T06:52:41;95102.44;;;22.55;60.10
23363;BME280;11853;48.080;11.960;2023-07-08T06:55:09;95104.28;;;22.55;60.41
23363;BME280;11853;48.080;11.960;2023-07-08T06:57:35;95102.63;;;22.54;61.14
23363;BME280;11853;48.080;11.960;2023-07-08T07:00:01;95103.91;;;22.51;61.25
23363;BME280;11853;48.080;11.960;2023-07-08T07:02:28;95106.84;;;22.49;60.46
23363;BME280;11853;48.080;11.960;2023-07-08T07:04:54;95104.34;;;22.48;61.92
23363;BME280;11853;48.080;11.960;2023-07-08T07:07:20;95110.38;;;22.50;62.27
23363;BME280;11853;48.080;11.960;2023-07-08T07:09:46;95112.25;;;22.49;61.75
23363;BME280;11853;48.080;11.960;2023-07-08T07:12:12;95113.91;;;22.51;61.58
23363;BME280;11853;48.080;11.960;2023-07-08T07:14:37;95119.31;;;22.51;61.65
23363;BME280;11853;48.080;11.960;2023-07-08T07:17:03;95122.22;;;22.49;61.44
23363;BME280;11853;48.080;11.960;2023-07-08T07:19:29;95119.97;;;22.46;61.23
23363;BME280;11853;48.080;11.960;2023-07-08T07:21:55;95117.69;;;22.43;61.93
23363;BME280;11853;48.080;11.960;2023-07-08T07:24:20;95115.59;;;22.45;61.03
23363;BME280;11853;48.080;11.960;2023-07-08T07:26:46;95113.97;;;22.44;61.54
23363;BME280;11853;48.080;11.960;2023-07-08T07:29:16;95116.88;;;22.42;61.33
23363;BME280;11853;48.080;11.960;2023-07-08T07:31:42;95115.88;;;22.37;61.56
23363;BME280;11853;48.080;11.960;2023-07-08T07:34:08;95123.97;;;22.37;61.99
23363;BME280;11853;48.080;11.960;2023-07-08T07:36:34;95120.72;;;22.28;61.67
23363;BME280;11853;48.080;11.960;2023-07-08T07:39:00;95119.06;;;22.27;62.11
23363;BME280;11853;48.080;11.960;2023-07-08T07:41:25;95125.25;;;22.34;61.50
23363;BME280;11853;48.080;11.960;2023-07-08T07:43:51;95119.81;;;22.41;62.50
23363;BME280;11853;48.080;11.960;2023-07-08T07:46:17;95120.97;;;22.52;62.70
23363;BME280;11853;48.080;11.960;2023-07-08T07:48:43;95121.50;;;22.60;62.32
23363;BME280;11853;48.080;11.960;2023-07-08T07:51:09;95122.47;;;22.73;62.38
23363;BME280;11853;48.080;11.960;2023-07-08T07:53:39;95132.78;;;22.82;62.44
23363;BME280;11853;48.080;11.960;2023-07-08T07:56:05;95130.00;;;22.89;62.57
23363;BME280;11853;48.080;11.960;2023-07-08T07:58:32;95128.97;;;22.90;61.65
23363;BME280;11853;48.080;11.960;2023-07-08T08:00:58;95133.94;;;22.93;62.52
23363;BME280;11853;48.080;11.960;2023-07-08T08:03:24;95135.56;;;22.94;63.62
23363;BME280;11853;48.080;11.960;2023-07-08T08:05:50;95145.16;;;22.97;63.97
23363;BME280;11853;48.080;11.960;2023-07-08T08:08:16;95142.25;;;22.98;63.17
23363;BME280;11853;48.080;11.960;2023-07-08T08:10:42;95144.28;;;23.03;63.65
23363;BME280;11853;48.080;11.960;2023-07-08T08:13:08;95149.03;;;23.07;63.28
23363;BME280;11853;48.080;11.960;2023-07-08T08:15:35;95147.50;;;23.11;63.19
23363;BME280;11853;48.080;11.960;2023-07-08T08:18:01;95152.47;;;23.14;63.84
23363;BME280;11853;48.080;11.960;2023-07-08T08:20:28;95155.34;;;23.20;64.45
23363;BME280;11853;48.080;11.960;2023-07-08T08:22:53;95158.38;;;23.30;64.82
23363;BME280;11853;48.080;11.960;2023-07-08T08:25:23;95167.72;;;23.34;64.71
23363;BME280;11853;48.080;11.960;2023-07-08T08:27:49;95168.69;;;23.39;64.33
23363;BME280;11853;48.080;11.960;2023-07-08T08:30:15;95158.84;;;23.45;65.86
23363;BME280;11853;48.080;11.960;2023-07-08T08:32:41;95168.31;;;23.54;65.13
23363;BME280;11853;48.080;11.960;2023-07-08T08:35:07;95172.00;;;23.60;64.25
23363;BME280;11853;48.080;11.960;2023-07-08T08:37:33;95174.97;;;23.58;63.12
23363;BME280;11853;48.080;11.960;2023-07-08T08:39:59;95164.50;;;23.62;62.80
23363;BME280;11853;48.080;11.960;2023-07-08T08:42:34;95174.06;;;23.65;61.75
23363;BME280;11853;48.080;11.960;2023-07-08T08:45:02;95166.06;;;23.70;61.81
23363;BME280;11853;48.080;11.960;2023-07-08T08:47:38;95166.69;;;23.72;62.20
23363;BME280;11853;48.080;11.960;2023-07-08T08:52:55;95167.91;;;23.76;62.40
23363;BME280;11853;48.080;11.960;2023-07-08T08:55:23;95174.88;;;23.83;61.88
23363;BME280;11853;48.080;11.960;2023-07-08T08:58:26;95173.38;;;23.88;60.78
23363;BME280;11853;48.080;11.960;2023-07-08T09:00:54;95173.75;;;23.91;61.06
23363;BME280;11853;48.080;11.960;2023-07-08T09:06:22;95178.34;;;23.91;61.00
23363;BME280;11853;48.080;11.960;2023-07-08T09:08:50;95178.72;;;23.94;61.52
23363;BME280;11853;48.080;11.960;2023-07-08T09:11:57;95179.00;;;24.04;62.08
23363;BME280;11853;48.080;11.960;2023-07-08T09:14:25;95178.78;;;24.06;60.34
23363;BME280;11853;48.080;11.960;2023-07-08T09:17:20;95187.28;;;24.10;60.46
23363;BME280;11853;48.080;11.960;2023-07-08T09:20:06;95181.72;;;24.04;59.20
23363;BME280;11853;48.080;11.960;2023-07-08T09:22:39;95185.94;;;24.00;59.41
23363;BME280;11853;48.080;11.960;2023-07-08T09:25:15;95188.06;;;23.98;59.17
23363;BME280;11853;48.080;11.960;2023-07-08T09:27:46;95192.22;;;24.01;59.84
23363;BME280;11853;48.080;11.960;2023-07-08T09:30:19;95191.50;;;24.05;60.51
23363;BME280;11853;48.080;11.960;2023-07-08T09:32:48;95192.56;;;24.04;60.46
23363;BME280;11853;48.080;11.960;2023-07-08T09:35:26;95192.31;;;24.06;60.29
23363;BME280;11853;48.080;11.960;2023-07-08T09:37:52;95197.28;;;24.09;60.46
23363;BME280;11853;48.080;11.960;2023-07-08T09:40:33;95200.97;;;24.15;60.05
23363;BME280;11853;48.080;11.960;2023-07-08T09:43:26;95205.13;;;24.17;60.41
23363;BME280;11853;48.080;11.960;2023-07-08T09:45:58;95206.91;;;24.23;59.14
23363;BME280;11853;48.080;11.960;2023-07-08T09:48:27;95214.16;;;24.30;59.41
23363;BME280;11853;48.080;11.960;2023-07-08T09:50:54;95204.84;;;24.37;59.32
23363;BME280;11853;48.080;11.960;2023-07-08T09:53:21;95200.03;;;24.39;58.32
23363;BME280;11853;48.080;11.960;2023-07-08T09:55:48;95205.91;;;24.36;58.56
23363;BME280;11853;48.080;11.960;2023-07-08T09:58:23;95204.50;;;24.34;58.45
23363;BME280;11853;48.080;11.960;2023-07-08T10:01:01;95201.56;;;24.35;59.14
23363;BME280;11853;48.080;11.960;2023-07-08T10:03:34;95210.63;;;24.41;60.52
23363;BME280;11853;48.080;11.960;2023-07-08T10:08:49;95209.78;;;24.47;61.02
23363;BME280;11853;48.080;11.960;2023-07-08T10:11:39;95214.34;;;24.46;60.49
23363;BME280;11853;48.080;11.960;2023-07-08T10:14:30;95206.34;;;24.52;61.19
23363;BME280;11853;48.080;11.960;2023-07-08T10:16:58;95210.97;;;24.63;61.76
23363;BME280;11853;48.080;11.960;2023-07-08T10:19:29;95208.56;;;24.73;62.09
23363;BME280;11853;48.080;11.960;2023-07-08T10:22:26;95204.31;;;24.89;62.56
23363;BME280;11853;48.080;11.960;2023-07-08T10:25:22;95209.53;;;25.02;61.42
23363;BME280;11853;48.080;11.960;2023-07-08T10:28:25;95208.38;;;25.10;59.49
23363;BME280;11853;48.080;11.960;2023-07-08T10:31:16;95212.09;;;25.15;60.49
23363;BME280;11853;48.080;11.960;2023-07-08T10:36:29;95218.81;;;25.25;57.85
23363;BME280;11853;48.080;11.960;2023-07-08T10:42:03;95213.03;;;25.33;57.63
23363;BME280;11853;48.080;11.960;2023-07-08T10:48:00;95208.63;;;25.44;56.54
23363;BME280;11853;48.080;11.960;2023-07-08T10:53:52;95209.97;;;25.53;56.70
23363;BME280;11853;48.080;11.960;2023-07-08T10:56:40;95210.53;;;25.55;55.26
23363;BME280;11853;48.080;11.960;2023-07-08T10:59:18;95208.28;;;25.52;54.61
23363;BME280;11853;48.080;11.960;2023-07-08T11:04:43;95205.94;;;25.67;56.74
23363;BME280;11853;48.080;11.960;2023-07-08T11:09:54;95207.94;;;25.83;54.83
23363;BME280;11853;48.080;11.960;2023-07-08T11:12:38;95202.84;;;25.87;52.71
23363;BME280;11853;48.080;11.960;2023-07-08T11:18:05;95198.81;;;26.01;54.82
23363;BME280;11853;48.080;11.960;2023-07-08T11:20:40;95209.19;;;26.04;50.91
23363;BME280;11853;48.080;11.960;2023-07-08T11:23:26;95204.00;;;26.03;51.79
23363;BME280;11853;48.080;11.960;2023-07-08T11:26:11;95201.13;;;26.10;53.45
23363;BME280;11853;48.080;11.960;2023-07-08T11:28:40;95196.59;;;26.15;54.33
23363;BME280;11853;48.080;11.960;2023-07-08T11:31:05;95197.81;;;26.19;52.15
23363;BME280;11853;48.080;11.960;2023-07-08T11:33:33;95195.41;;;26.23;52.44
23363;BME280;11853;48.080;11.960;2023-07-08T11:36:00;95183.22;;;26.25;51.58
23363;BME280;11853;48.080;11.960;2023-07-08T11:38:28;95190.31;;;26.26;50.69
23363;BME280;11853;48.080;11.960;2023-07-08T11:40:55;95190.31;;;26.26;50.60
23363;BME280;11853;48.080;11.960;2023-07-08T11:43:24;95180.84;;;26.29;50.06
23363;BME280;11853;48.080;11.960;2023-07-08T11:45:51;95192.31;;;26.31;49.78
23363;BME280;11853;48.080;11.960;2023-07-08T11:48:26;95185.91;;;26.37;51.02
23363;BME280;11853;48.080;11.960;2023-07-08T11:50:54;95190.03;;;26.40;49.38
23363;BME280;11853;48.080;11.960;2023-07-08T11:56:00;95185.72;;;26.44;47.54
23363;BME280;11853;48.080;11.960;2023-07-08T12:01:04;95172.22;;;26.49;48.68
23363;BME280;11853;48.080;11.960;2023-07-08T12:03:47;95176.16;;;26.53;48.66
23363;BME280;11853;48.080;11.960;2023-07-08T12:08:56;95172.34;;;26.54;50.60
23363;BME280;11853;48.080;11.960;2023-07-08T12:11:34;95162.88;;;26.57;48.87
23363;BME280;11853;48.080;11.960;2023-07-08T12:14:03;95164.88;;;26.61;49.04
23363;BME280;11853;48.080;11.960;2023-07-08T12:16:31;95164.44;;;26.69;47.70
23363;BME280;11853;48.080;11.960;2023-07-08T12:18:59;95160.41;;;26.72;46.80
23363;BME280;11853;48.080;11.960;2023-07-08T12:21:27;95173.53;;;26.75;47.12
23363;BME280;11853;48.080;11.960;2023-07-08T12:23:53;95170.00;;;26.91;41.76
23363;BME280;11853;48.080;11.960;2023-07-08T12:26:21;95169.69;;;26.88;44.26
23363;BME280;11853;48.080;11.960;2023-07-08T12:28:47;95164.25;;;26.88;45.01
23363;BME280;11853;48.080;11.960;2023-07-08T12:31:20;95162.34;;;26.88;45.83
23363;BME280;11853;48.080;11.960;2023-07-08T12:33:48;95162.09;;;26.90;46.98
23363;BME280;11853;48.080;11.960;2023-07-08T12:36:23;95170.59;;;26.93;46.47
23363;BME280;11853;48.080;11.960;2023-07-08T12:38:55;95173.41;;;26.99;46.26
23363;BME280;11853;48.080;11.960;2023-07-08T12:41:30;95166.69;;;27.06;45.54
23363;BME280;11853;48.080;11.960;2023-07-08T12:43:57;95173.31;;;27.10;46.38
23363;BME280;11853;48.080;11.960;2023-07-08T12:46:25;95173.81;;;27.07;45.54
23363;BME280;11853;48.080;11.960;2023-07-08T12:48:50;95176.19;;;27.04;44.66
23363;BME280;11853;48.080;11.960;2023-07-08T12:51:21;95173.63;;;26.97;44.51
23363;BME280;11853;48.080;11.960;2023-07-08T12:53:49;95169.84;;;26.98;45.00
23363;BME280;11853;48.080;11.960;2023-07-08T12:56:16;95182.41;;;26.99;45.43
23363;BME280;11853;48.080;11.960;2023-07-08T12:58:56;95172.81;;;26.96;44.50
23363;BME280;11853;48.080;11.960;2023-07-08T13:01:25;95180.91;;;26.91;44.61
23363;BME280;11853;48.080;11.960;2023-07-08T13:03:55;95174.47;;;26.98;41.94
23363;BME280;11853;48.080;11.960;2023-07-08T13:06:25;95179.31;;;26.95;42.38
23363;BME280;11853;48.080;11.960;2023-07-08T13:08:53;95171.41;;;26.94;42.97
23363;BME280;11853;48.080;11.960;2023-07-08T13:11:22;95172.50;;;26.93;44.13
23363;BME280;11853;48.080;11.960;2023-07-08T13:13:57;95172.81;;;26.96;44.78
23363;BME280;11853;48.080;11.960;2023-07-08T13:16:30;95179.69;;;26.99;46.44
23363;BME280;11853;48.080;11.960;2023-07-08T13:18:57;95186.66;;;26.95;45.69
23363;BME280;11853;48.080;11.960;2023-07-08T13:21:23;95175.13;;;26.88;45.36
23363;BME280;11853;48.080;11.960;2023-07-08T13:23:50;95177.75;;;26.83;46.14
23363;BME280;11853;48.080;11.960;2023-07-08T13:26:21;95172.00;;;26.79;44.17
23363;BME280;11853;48.080;11.960;2023-07-08T13:28:48;95179.84;;;26.76;43.61
23363;BME280;11853;48.080;11.960;2023-07-08T13:31:16;95174.63;;;26.74;44.44
23363;BME280;11853;48.080;11.960;2023-07-08T13:33:53;95182.56;;;26.76;44.00
23363;BME280;11853;48.080;11.960;2023-07-08T13:36:24;95172.81;;;26.80;44.03
23363;BME280;11853;48.080;11.960;2023-07-08T13:38:51;95172.63;;;26.86;44.65
23363;BME280;11853;48.080;11.960;2023-07-08T13:41:21;95170.28;;;26.90;43.22